createdAt,value
2019-04-20T00:01:12.619Z,20.35
2019-04-20T00:03:43.518Z,13.80
2019-04-20T00:06:11.409Z,15.28
2019-04-20T00:08:42.656Z,13.60
2019-04-20T00:11:17.861Z,12.68
2019-04-20T00:13:52.056Z,11.25
2019-04-20T00:16:12.629Z,11.38
2019-04-20T00:18:48.244Z,12.93
2019-04-20T00:21:30.908Z,11.25
2019-04-20T00:24:07.394Z,11.73
2019-04-20T00:27:04.788Z,12.45
2019-04-20T00:29:23.956Z,13.10
2019-04-20T00:31:45.779Z,13.85
2019-04-20T00:34:12.154Z,13.40
2019-04-20T00:36:34.991Z,11.75
2019-04-20T00:39:08.092Z,11.80
2019-04-20T00:41:44.132Z,12.95
2019-04-20T00:44:13.274Z,16.35
2019-04-20T00:46:51.146Z,16.60
2019-04-20T00:49:20.631Z,18.42
2019-04-20T00:52:06.730Z,15.05
2019-04-20T00:54:09.548Z,15.90
2019-04-20T00:56:39.253Z,16.05
2019-04-20T00:59:45.758Z,15.68
2019-04-20T01:02:13.153Z,16.23
2019-04-20T01:04:52.392Z,16.95
2019-04-20T01:07:15.477Z,18.52
2019-04-20T01:09:54.231Z,18.65
2019-04-20T01:12:28.025Z,21.27
2019-04-20T01:14:57.363Z,19.85
2019-04-20T01:17:24.420Z,28.12
2019-04-20T01:19:54.118Z,27.90
2019-04-20T01:22:26.547Z,29.23
2019-04-20T01:24:54.958Z,27.52
2019-04-20T01:27:37.647Z,32.78
2019-04-20T01:30:07.069Z,20.92
2019-04-20T01:32:34.271Z,26.15
2019-04-20T01:35:10.096Z,21.85
2019-04-20T01:37:36.046Z,18.75
2019-04-20T01:40:00.398Z,16.25
2019-04-20T01:42:27.540Z,14.90
2019-04-20T01:44:57.389Z,14.25
2019-04-20T01:47:32.303Z,13.95
2019-04-20T01:50:03.378Z,18.82
2019-04-20T01:52:39.653Z,14.47
2019-04-20T01:55:22.745Z,17.23
2019-04-20T01:58:02.030Z,13.93
2019-04-20T02:00:27.779Z,11.15
2019-04-20T02:02:58.336Z,9.30
2019-04-20T02:05:29.134Z,11.85
2019-04-20T02:07:55.217Z,10.95
2019-04-20T02:10:33.328Z,13.20
2019-04-20T02:12:58.327Z,17.07
2019-04-20T02:15:33.216Z,18.35
2019-04-20T02:18:08.853Z,15.18
2019-04-20T02:20:44.266Z,18.42
2019-04-20T02:23:07.457Z,16.70
2019-04-20T02:25:26.885Z,15.45
2019-04-20T02:28:14.797Z,15.20
2019-04-20T02:38:54.340Z,13.40
2019-04-20T02:41:11.784Z,9.80
2019-04-20T02:43:49.767Z,14.53
2019-04-20T02:46:07.137Z,13.60
2019-04-20T02:48:41.186Z,12.78
2019-04-20T02:51:08.999Z,10.70
2019-04-20T02:53:55.173Z,10.20
2019-04-20T02:56:12.286Z,10.88
2019-04-20T02:58:45.541Z,10.82
2019-04-20T03:01:25.317Z,10.32
2019-04-20T03:03:42.725Z,12.82
2019-04-20T03:06:17.212Z,11.70
2019-04-20T03:08:56.374Z,10.48
2019-04-20T03:11:37.821Z,9.80
2019-04-20T03:13:57.885Z,10.18
2019-04-20T03:16:24.255Z,11.20
2019-04-20T03:18:53.684Z,12.25
2019-04-20T03:21:33.444Z,11.33
2019-04-20T03:24:09.857Z,9.70
2019-04-20T03:26:31.297Z,9.55
2019-04-20T03:29:13.079Z,8.75
2019-04-20T03:34:47.533Z,10.10
2019-04-20T03:37:00.635Z,7.00
2019-04-20T03:39:23.338Z,10.68
2019-04-20T03:41:39.859Z,10.18
2019-04-20T03:44:09.015Z,10.05
2019-04-20T03:46:44.876Z,9.13
2019-04-20T03:49:27.991Z,8.73
2019-04-20T03:51:58.829Z,10.85
2019-04-20T03:54:24.377Z,9.55
2019-04-20T03:57:15.257Z,14.13
2019-04-20T03:59:43.687Z,15.23
2019-04-20T04:05:06.219Z,12.93
2019-04-20T04:07:26.829Z,16.90
2019-04-20T04:10:06.699Z,22.70
2019-04-20T04:12:44.808Z,19.45
2019-04-20T04:15:11.113Z,23.80
2019-04-20T04:17:43.207Z,21.33
2019-04-20T04:20:14.799Z,22.77
2019-04-20T04:23:02.519Z,21.73
2019-04-20T04:25:22.686Z,22.35
2019-04-20T04:28:02.630Z,16.07
2019-04-20T04:30:28.352Z,11.90
2019-04-20T04:33:23.446Z,14.03
2019-04-20T04:35:23.262Z,9.25
2019-04-20T04:38:02.597Z,9.28
2019-04-20T04:40:39.233Z,10.90
2019-04-20T04:43:05.703Z,5.95
2019-04-20T04:45:17.696Z,9.35
2019-04-20T04:47:45.565Z,9.13
2019-04-20T04:50:18.447Z,9.30
2019-04-20T04:52:54.564Z,8.15
2019-04-20T04:55:25.677Z,8.93
2019-04-20T04:57:47.367Z,9.35
2019-04-20T05:00:25.590Z,7.50
2019-04-20T05:02:53.793Z,9.80
2019-04-20T05:05:45.271Z,7.30
2019-04-20T05:08:02.846Z,8.18
2019-04-20T05:10:22.376Z,10.23
2019-04-20T05:12:51.772Z,9.78
2019-04-20T05:15:39.383Z,12.82
2019-04-20T05:18:13.315Z,8.83
2019-04-20T05:20:47.243Z,9.48
2019-04-20T05:23:13.038Z,10.18
2019-04-20T05:26:05.146Z,10.13
2019-04-20T05:28:30.897Z,8.80
2019-04-20T05:30:54.612Z,8.60
2019-04-20T05:33:30.210Z,10.55
2019-04-20T05:36:12.662Z,10.10
2019-04-20T05:39:02.283Z,8.03
2019-04-20T05:41:11.776Z,9.10
2019-04-20T05:43:56.539Z,11.00
2019-04-20T05:46:30.851Z,7.12
2019-04-20T05:49:02.798Z,8.38
2019-04-20T05:51:44.364Z,11.20
2019-04-20T05:54:02.686Z,8.33
2019-04-20T05:56:37.240Z,7.50
2019-04-20T05:58:59.444Z,9.88
2019-04-20T06:01:40.822Z,6.65
2019-04-20T06:04:02.734Z,7.53
2019-04-20T06:06:33.161Z,6.20
2019-04-20T06:09:12.045Z,8.48
2019-04-20T06:12:02.967Z,10.80
2019-04-20T06:14:10.178Z,11.25
2019-04-20T06:17:19.985Z,8.60
2019-04-20T06:19:31.276Z,10.32
2019-04-20T06:22:10.344Z,9.18
2019-04-20T06:24:53.162Z,7.53
2019-04-20T06:27:14.885Z,5.92
2019-04-20T06:29:45.835Z,6.45
2019-04-20T06:32:21.095Z,5.47
2019-04-20T06:35:02.720Z,7.28
2019-04-20T06:37:16.893Z,13.38
2019-04-20T06:39:49.114Z,9.88
2019-04-20T06:42:31.934Z,9.20
2019-04-20T06:45:07.362Z,10.63
2019-04-20T06:47:17.612Z,7.92
2019-04-20T06:49:45.356Z,10.23
2019-04-20T06:52:32.052Z,6.90
2019-04-20T06:55:05.628Z,7.92
2019-04-20T06:57:54.185Z,13.48
2019-04-20T07:02:44.716Z,10.45
2019-04-20T07:05:27.378Z,6.55
2019-04-20T07:08:00.712Z,9.98
2019-04-20T07:10:19.881Z,8.35
2019-04-20T07:12:42.105Z,7.40
2019-04-20T07:15:15.433Z,10.58
2019-04-20T07:17:55.119Z,9.85
2019-04-20T07:20:15.885Z,11.50
2019-04-20T07:23:11.521Z,9.20
2019-04-20T07:25:33.189Z,11.10
2019-04-20T07:28:05.811Z,7.78
2019-04-20T07:30:35.229Z,9.63
2019-04-20T07:33:11.416Z,7.50
2019-04-20T07:35:35.457Z,10.38
2019-04-20T07:40:36.065Z,10.50
2019-04-20T07:43:04.038Z,13.50
2019-04-20T07:45:36.439Z,14.20
2019-04-20T07:48:13.559Z,13.22
2019-04-20T07:50:31.800Z,17.82
2019-04-20T07:53:07.925Z,12.95
2019-04-20T07:55:49.537Z,16.80
2019-04-20T07:58:02.583Z,17.77
2019-04-20T08:00:51.903Z,19.50
2019-04-20T08:03:29.608Z,14.67
2019-04-20T08:05:47.079Z,14.70
2019-04-20T08:08:23.907Z,12.37
2019-04-20T08:10:54.493Z,13.72
2019-04-20T08:13:35.437Z,15.28
2019-04-20T08:15:58.401Z,16.97
2019-04-20T08:18:32.328Z,13.95
2019-04-20T08:20:57.974Z,13.28
2019-04-20T08:23:29.973Z,14.83
2019-04-20T08:25:47.335Z,13.98
2019-04-20T08:28:17.827Z,14.40
2019-04-20T08:30:59.436Z,11.65
2019-04-20T08:33:34.953Z,14.98
2019-04-20T08:36:13.164Z,11.25
2019-04-20T08:39:00.016Z,15.40
2019-04-20T08:41:03.225Z,12.98
2019-04-20T08:43:54.242Z,11.10
2019-04-20T08:46:05.640Z,14.95
2019-04-20T08:48:40.626Z,15.10
2019-04-20T08:51:07.516Z,17.32
2019-04-20T08:53:36.910Z,20.85
2019-04-20T08:56:02.288Z,16.15
2019-04-20T08:58:20.292Z,15.25
2019-04-20T09:00:55.361Z,16.48
2019-04-20T09:03:25.376Z,15.28
2019-04-20T09:06:02.765Z,12.95
2019-04-20T09:08:26.268Z,15.98
2019-04-20T09:11:09.701Z,13.80
2019-04-20T09:13:33.107Z,22.15
2019-04-20T09:15:53.525Z,25.00
2019-04-20T09:18:43.346Z,19.48
2019-04-20T09:21:13.958Z,28.17
2019-04-20T09:23:52.441Z,23.95
2019-04-20T09:26:27.020Z,19.67
2019-04-20T09:28:59.002Z,19.75
2019-04-20T09:31:44.829Z,22.45
2019-04-20T09:34:21.975Z,23.92
2019-04-20T09:37:16.826Z,16.95
2019-04-20T09:39:43.015Z,17.20
2019-04-20T09:42:18.767Z,11.53
2019-04-20T09:44:51.471Z,16.00
2019-04-20T09:47:26.370Z,14.78
2019-04-20T09:50:02.710Z,19.92
2019-04-20T09:52:32.210Z,14.53
2019-04-20T09:55:04.323Z,15.58
2019-04-20T09:57:38.132Z,16.52
2019-04-20T10:00:07.169Z,13.18
2019-04-20T10:02:25.529Z,18.73
2019-04-20T10:04:51.544Z,13.08
2019-04-20T10:07:23.999Z,15.70
2019-04-20T10:09:52.063Z,20.10
2019-04-20T10:12:21.868Z,11.53
2019-04-20T10:14:50.996Z,11.50
2019-04-20T10:17:20.228Z,15.20
2019-04-20T10:19:49.241Z,12.98
2019-04-20T10:22:18.455Z,10.72
2019-04-20T10:24:50.096Z,14.10
2019-04-20T10:27:18.775Z,14.75
2019-04-20T10:29:47.649Z,15.25
2019-04-20T10:32:17.854Z,17.95
2019-04-20T10:34:46.984Z,20.30
2019-04-20T10:37:17.681Z,11.93
2019-04-20T10:39:46.830Z,28.40
2019-04-20T10:42:16.303Z,16.32
2019-04-20T10:44:45.294Z,12.55
2019-04-20T10:47:14.726Z,15.45
2019-04-20T10:49:44.933Z,15.60
2019-04-20T10:52:13.923Z,27.77
2019-04-20T10:54:42.758Z,23.45
2019-04-20T10:57:11.483Z,18.45
2019-04-20T10:59:41.452Z,17.40
2019-04-20T11:02:10.281Z,17.95
2019-04-20T11:04:39.156Z,14.60
2019-04-20T11:07:08.300Z,16.95
2019-04-20T11:09:38.493Z,15.63
2019-04-20T11:12:08.353Z,17.45
2019-04-20T11:14:40.557Z,13.30
2019-04-20T11:17:08.675Z,15.20
2019-04-20T11:19:37.599Z,10.05
2019-04-20T11:22:06.548Z,13.45
2019-04-20T11:24:36.412Z,20.97
2019-04-20T11:27:05.700Z,14.30
2019-04-20T11:29:35.985Z,11.45
2019-04-20T11:32:05.333Z,8.68
2019-04-20T11:34:38.391Z,12.70
2019-04-20T11:37:04.820Z,15.23
2019-04-20T11:39:34.929Z,16.35
2019-04-20T11:42:03.775Z,35.83
2019-04-20T11:44:33.756Z,15.45
2019-04-20T11:47:03.112Z,14.03
2019-04-20T11:49:33.276Z,21.65
2019-04-20T11:52:03.508Z,20.70
2019-04-20T11:54:32.538Z,13.35
2019-04-20T11:57:01.598Z,12.10
2019-04-20T11:59:30.714Z,22.35
2019-04-20T12:02:14.737Z,13.78
2019-04-20T12:04:49.874Z,8.85
2019-04-20T12:07:13.020Z,56.08
2019-04-20T12:09:41.987Z,13.28
2019-04-20T12:12:22.326Z,16.37
2019-04-20T12:14:41.233Z,19.45
2019-04-20T12:17:11.363Z,13.62
2019-04-20T12:19:41.758Z,10.50
2019-04-20T12:22:11.844Z,20.00
2019-04-20T12:24:40.803Z,19.00
2019-04-20T12:27:10.139Z,17.82
2019-04-20T12:29:39.078Z,17.40
2019-04-20T12:32:08.980Z,20.50
2019-04-20T12:34:39.292Z,15.28
2019-04-20T12:37:09.056Z,22.27
2019-04-20T12:39:39.369Z,15.20
2019-04-20T12:42:09.532Z,20.62
2019-04-20T12:44:41.693Z,16.97
2019-04-20T12:47:10.042Z,19.62
2019-04-20T12:49:39.043Z,12.65
2019-04-20T12:52:08.428Z,21.15
2019-04-20T12:54:39.977Z,14.98
2019-04-20T12:57:08.893Z,16.48
2019-04-20T12:59:39.179Z,18.15
2019-04-20T13:02:09.204Z,13.53
2019-04-20T13:04:39.373Z,17.15
2019-04-20T13:07:09.982Z,13.88
2019-04-20T13:09:41.926Z,16.02
2019-04-20T13:12:32.102Z,19.65
2019-04-20T13:15:08.646Z,11.73
2019-04-20T13:17:37.989Z,18.40
2019-04-20T13:20:07.862Z,11.25
2019-04-20T13:22:57.195Z,14.53
2019-04-20T13:25:26.293Z,17.42
2019-04-20T13:27:56.821Z,10.82
2019-04-20T13:30:25.966Z,14.03
2019-04-20T13:32:57.079Z,10.65
2019-04-20T13:35:26.051Z,10.75
2019-04-20T13:37:56.274Z,9.15
2019-04-20T13:40:26.000Z,15.65
2019-04-20T13:42:55.969Z,14.05
2019-04-20T13:45:24.868Z,14.47
2019-04-20T13:47:54.987Z,10.30
2019-04-20T13:50:24.126Z,8.95
2019-04-20T13:52:53.143Z,9.15
2019-04-20T13:55:25.085Z,9.33
2019-04-20T13:58:00.242Z,12.47
2019-04-20T14:00:40.936Z,12.68
2019-04-20T14:03:11.248Z,10.23
2019-04-20T14:05:40.474Z,10.45
2019-04-20T14:08:11.539Z,8.90
2019-04-20T14:10:41.688Z,11.83
2019-04-20T14:13:16.547Z,7.97
2019-04-20T14:15:41.244Z,10.45
2019-04-20T14:18:11.143Z,8.88
2019-04-20T14:20:40.306Z,9.70
2019-04-20T14:23:09.540Z,9.15
2019-04-20T14:25:38.745Z,11.90
2019-04-20T14:28:09.041Z,6.67
2019-04-20T14:30:37.932Z,10.43
2019-04-20T14:33:06.711Z,10.25
2019-04-20T14:35:36.795Z,8.15
2019-04-20T14:38:05.998Z,15.05
2019-04-20T14:40:34.760Z,7.25
2019-04-20T14:43:03.634Z,8.48
2019-04-20T14:45:32.476Z,8.50
2019-04-20T14:48:01.661Z,7.62
2019-04-20T14:50:31.738Z,9.60
2019-04-20T14:53:01.753Z,10.60
2019-04-20T14:55:31.373Z,9.65
2019-04-20T14:58:01.905Z,7.75
2019-04-20T15:00:45.667Z,9.55
2019-04-20T15:03:22.072Z,9.10
2019-04-20T15:05:52.959Z,9.90
2019-04-20T15:08:24.786Z,7.65
2019-04-20T15:10:54.554Z,9.65
2019-04-20T15:13:24.601Z,7.50
2019-04-20T15:15:54.763Z,6.37
2019-04-20T15:18:37.730Z,9.50
2019-04-20T15:21:09.336Z,10.10
2019-04-20T15:23:39.453Z,10.18
2019-04-20T15:26:08.703Z,11.43
2019-04-20T15:28:38.620Z,8.93
2019-04-20T15:31:08.008Z,8.43
2019-04-20T15:33:37.116Z,9.53
2019-04-20T15:36:06.282Z,11.78
2019-04-20T15:38:35.447Z,10.20
2019-04-20T15:41:05.260Z,13.48
2019-04-20T15:43:35.299Z,9.75
2019-04-20T15:46:05.461Z,10.48
2019-04-20T15:48:34.415Z,7.62
2019-04-20T15:51:03.706Z,12.20
2019-04-20T15:53:33.525Z,8.40
2019-04-20T15:56:05.005Z,8.80
2019-04-20T15:58:34.442Z,9.20
2019-04-20T16:01:05.062Z,7.58
2019-04-20T16:03:35.528Z,6.22
2019-04-20T16:06:13.715Z,14.53
2019-04-20T16:08:44.295Z,7.87
2019-04-20T16:11:13.381Z,9.38
2019-04-20T16:13:47.329Z,10.55
2019-04-20T16:16:14.007Z,8.58
2019-04-20T16:18:45.225Z,7.28
2019-04-20T16:21:21.859Z,7.67
2019-04-20T16:23:46.511Z,5.55
2019-04-20T16:26:17.752Z,7.42
2019-04-20T16:28:47.939Z,7.87
2019-04-20T16:31:18.177Z,7.20
2019-04-20T16:33:48.753Z,6.65
2019-04-20T16:36:18.688Z,7.20
2019-04-20T16:38:47.806Z,7.50
2019-04-20T16:41:18.037Z,4.90
2019-04-20T16:43:48.511Z,7.60
2019-04-20T16:46:21.701Z,5.55
2019-04-20T16:48:48.478Z,6.42
2019-04-20T16:51:18.638Z,4.72
2019-04-20T16:53:47.949Z,6.42
2019-04-20T16:56:18.960Z,8.33
2019-04-20T16:58:48.203Z,9.53
2019-04-20T17:01:17.819Z,11.28
2019-04-20T17:03:55.514Z,5.05
2019-04-20T17:06:18.027Z,8.98
2019-04-20T17:08:47.911Z,4.83
2019-04-20T17:11:18.169Z,7.55
2019-04-20T17:13:50.111Z,5.80
2019-04-20T17:16:17.647Z,6.83
2019-04-20T17:18:49.967Z,13.25
2019-04-20T17:21:23.536Z,4.75
2019-04-20T17:23:49.396Z,6.72
2019-04-20T17:26:20.932Z,5.80
2019-04-20T17:28:54.070Z,8.80
2019-04-20T17:31:29.364Z,8.88
2019-04-20T17:34:11.099Z,7.17
2019-04-20T17:36:33.131Z,6.25
2019-04-20T17:39:06.260Z,7.85
2019-04-20T17:41:52.704Z,4.83
2019-04-20T17:44:21.009Z,7.80
2019-04-20T17:46:41.329Z,6.65
2019-04-20T17:49:18.219Z,7.80
2019-04-20T17:51:58.721Z,8.85
2019-04-20T17:54:22.852Z,7.62
2019-04-20T17:56:52.134Z,7.47
2019-04-20T17:59:22.272Z,7.20
2019-04-20T18:02:15.550Z,8.90
2019-04-20T18:05:00.977Z,7.17
2019-04-20T18:07:32.539Z,11.00
2019-04-20T18:09:58.813Z,14.93
2019-04-20T18:12:20.757Z,12.15
2019-04-20T18:14:53.480Z,9.75
2019-04-20T18:17:32.647Z,9.68
2019-04-20T18:20:07.323Z,8.68
2019-04-20T18:22:38.358Z,11.15
2019-04-20T18:25:25.538Z,8.60
2019-04-20T18:27:58.743Z,11.95
2019-04-20T18:30:27.586Z,6.58
2019-04-20T18:32:45.158Z,7.80
2019-04-20T18:35:20.178Z,7.45
2019-04-20T18:37:52.557Z,9.33
2019-04-20T18:40:29.029Z,9.50
2019-04-20T18:42:55.869Z,14.33
2019-04-20T18:45:37.291Z,7.95
2019-04-20T18:48:13.022Z,8.73
2019-04-20T18:50:27.603Z,10.25
2019-04-20T18:52:53.861Z,14.63
2019-04-20T18:55:34.476Z,16.50
2019-04-20T18:57:53.399Z,14.43
2019-04-20T19:00:28.707Z,15.45
2019-04-20T19:02:56.039Z,15.30
2019-04-20T19:05:24.485Z,15.98
2019-04-20T19:08:00.059Z,14.50
2019-04-20T19:10:29.148Z,12.55
2019-04-20T19:12:59.948Z,11.43
2019-04-20T19:15:51.068Z,9.10
2019-04-20T19:18:42.215Z,10.18
2019-04-20T19:20:57.338Z,11.93
2019-04-20T19:23:27.127Z,11.20
2019-04-20T19:26:02.505Z,10.65
2019-04-20T19:28:33.480Z,12.47
2019-04-20T19:31:14.710Z,10.90
2019-04-20T19:33:47.252Z,20.08
2019-04-20T19:36:15.106Z,10.90
2019-04-20T19:38:38.865Z,15.50
2019-04-20T19:41:16.439Z,16.48
2019-04-20T19:43:39.884Z,11.93
2019-04-20T19:46:43.242Z,12.10
2019-04-20T19:48:40.583Z,15.68
2019-04-20T19:51:27.263Z,16.55
2019-04-20T19:53:53.082Z,12.82
2019-04-20T19:56:17.061Z,12.18
2019-04-20T19:58:45.625Z,12.07
2019-04-20T20:01:03.581Z,13.00
2019-04-20T20:03:33.447Z,12.28
2019-04-20T20:06:03.592Z,16.23
2019-04-20T20:08:35.927Z,14.73
2019-04-20T20:11:05.023Z,15.60
2019-04-20T20:13:42.012Z,14.45
2019-04-20T20:16:10.533Z,16.95
2019-04-20T20:18:48.829Z,14.65
2019-04-20T20:21:21.845Z,15.00
2019-04-20T20:23:36.306Z,10.13
2019-04-20T20:26:07.242Z,13.75
2019-04-20T20:28:43.719Z,14.30
2019-04-20T20:31:17.004Z,13.68
2019-04-20T20:33:49.603Z,11.20
2019-04-20T20:36:12.616Z,13.43
2019-04-20T20:38:43.679Z,10.58
2019-04-20T20:41:19.815Z,13.22
2019-04-20T20:43:49.622Z,11.05
2019-04-20T20:46:21.609Z,12.33
2019-04-20T20:49:07.484Z,16.12
2019-04-20T20:51:35.559Z,15.63
2019-04-20T20:53:50.873Z,18.12
2019-04-20T20:56:21.534Z,13.95
2019-04-20T20:58:52.039Z,15.63
2019-04-20T21:01:21.435Z,15.75
2019-04-20T21:03:46.104Z,15.72
2019-04-20T21:06:15.547Z,14.25
2019-04-20T21:08:48.737Z,14.47
2019-04-20T21:11:20.323Z,14.23
2019-04-20T21:13:48.631Z,13.50
2019-04-20T21:16:20.350Z,17.60
2019-04-20T21:19:03.178Z,15.32
2019-04-20T21:21:27.433Z,11.22
2019-04-20T21:23:58.111Z,10.15
2019-04-20T21:26:27.100Z,10.50
2019-04-20T21:28:50.108Z,15.40
2019-04-20T21:31:24.241Z,12.20
2019-04-20T21:33:50.950Z,14.43
2019-04-20T21:36:24.580Z,14.50
2019-04-20T21:38:51.758Z,15.78
2019-04-20T21:41:23.901Z,17.10
2019-04-20T21:43:51.895Z,19.48
2019-04-20T21:46:21.164Z,13.43
2019-04-20T21:49:04.279Z,12.70
2019-04-20T21:51:35.875Z,16.40
2019-04-20T21:53:53.449Z,15.43
2019-04-20T21:56:21.906Z,12.60
2019-04-20T21:58:57.264Z,11.25
2019-04-20T22:01:30.466Z,15.00
2019-04-20T22:03:54.318Z,12.20
2019-04-20T22:06:24.424Z,13.53
2019-04-20T22:08:59.801Z,11.48
2019-04-20T22:11:24.083Z,9.70
2019-04-20T22:13:54.519Z,8.58
2019-04-20T22:16:25.545Z,12.95
2019-04-20T22:19:10.409Z,9.98
2019-04-20T22:21:35.470Z,9.18
2019-04-20T22:24:06.735Z,8.98
2019-04-20T22:26:33.700Z,11.45
2019-04-20T22:28:56.349Z,14.30
2019-04-20T22:31:26.375Z,11.10
2019-04-20T22:33:56.357Z,10.18
2019-04-20T22:36:34.112Z,11.25
2019-04-20T22:39:15.767Z,12.53
2019-04-20T22:41:53.517Z,9.35
2019-04-20T22:44:20.483Z,9.38
2019-04-20T22:46:47.689Z,11.38
2019-04-20T22:49:33.104Z,12.80
2019-04-20T22:51:58.136Z,6.65
2019-04-20T22:54:34.065Z,4.50
2019-04-20T22:56:57.307Z,5.00
2019-04-20T22:59:22.892Z,9.28
2019-04-20T23:01:55.245Z,6.28
2019-04-20T23:04:19.386Z,4.75
2019-04-20T23:06:50.255Z,5.50
2019-04-20T23:09:18.811Z,6.30
2019-04-20T23:11:47.684Z,6.37
2019-04-20T23:14:16.540Z,4.97
2019-04-20T23:16:49.150Z,8.93
2019-04-20T23:19:30.082Z,6.58
2019-04-20T23:21:52.098Z,6.47
2019-04-20T23:24:17.131Z,9.60
2019-04-20T23:26:48.943Z,9.15
2019-04-20T23:29:21.027Z,7.80
2019-04-20T23:31:55.312Z,5.40
2019-04-20T23:34:21.627Z,4.40
2019-04-20T23:36:50.771Z,8.25
2019-04-20T23:39:23.308Z,8.08
2019-04-20T23:41:57.041Z,10.28
2019-04-20T23:44:40.137Z,5.62
2019-04-20T23:47:20.599Z,16.07
2019-04-20T23:50:11.330Z,15.20
2019-04-20T23:52:49.459Z,10.48
2019-04-20T23:55:00.944Z,5.05
2019-04-20T23:57:26.029Z,7.83
2019-04-20T23:59:55.098Z,8.15
